• Join FlightAware (Why Join?)
  • Login
  • US Flag 
04:23PM EDT


 

Airport Tracker/Info


-or-


 

Live Flight TrackerFlight Track Log ✈ UAL685 ✈ 05-May-2013 ✈ KEWR - KSEA

Flight Track Log - Related Links

Times and Time Zones

All times are in EDT time to prevent confusion due to time zone crossing. See the UAL685 flight status page for this flight to view local times or setup timezone preferences in your user account.

Time Position Orientation Groundspeed Altitude Reporting Facility
EDT Latitude Longitude Course Direction KTS MPH feet Rate Location/Type
07:03AM 40.7281 -74.1419 304° West 177 204 2,300  Level New York Center
07:04AM 40.7594 -74.2067 303° West 177 204 3,600 2,580 Climbing New York Center
07:05AM 40.9521 -74.4785 319° Northwest  Level FlightAware Approximate
07:05AM 40.8158 -74.2781 316° Northwest 247 284 7,500  Level New York Center
07:06AM 41.0422 -74.5875 316° Northwest  Level FlightAware Approximate
07:06AM 40.8989 -74.2906 354° North 269 310 10,900  Level New York Center
07:07AM 41.1333 -74.6855 270° West  Level FlightAware Approximate
07:07AM 40.9572 -74.3511 322° Northwest 276 318 12,500  Level New York Center
07:08AM 41.1888 -74.8277 304° West  Level FlightAware Approximate
07:08AM 41.0206 -74.4672 306° West 339 390 15,300  Level New York Center
07:09AM 41.0792 -74.5833 304° West 378 435 16,900 840 Climbing New York Center
07:10AM 41.1342 -74.6883 305° West 383 441 17,000 840 Climbing New York Center
07:11AM 41.1806 -74.7958 300° West 383 441 18,600 1,920 Climbing New York Center
07:12AM 41.2461 -74.9461 300° West 384 442 20,900 1,980 Climbing New York Center
07:13AM 41.3019 -75.0736 300° West 398 458 22,700 1,680 Climbing New York Center
07:14AM 41.3594 -75.2100 299° West 416 479 24,300 1,620 Climbing New York Center
07:15AM 41.4167 -75.3467 299° West 422 486 26,000 1,440 Climbing New York Center
07:16AM 41.4719 -75.4750 300° West 437 503 27,300 1,380 Climbing New York Center
07:17AM 41.5214 -75.6475 291° West 447 514 28,800 1,440 Climbing New York Center
07:18AM 41.5614 -75.7861 291° West 447 514 30,300 1,320 Climbing New York Center
07:19AM 41.6089 -75.9422 292° West 447 514 31,500 1,320 Climbing New York Center
07:20AM 41.6519 -76.0983 290° West 452 520 33,000 1,320 Climbing New York Center
07:22AM 41.7242 -76.3678 290° West 457 526 35,200 1,080 Climbing Cleveland Center
07:23AM 41.7672 -76.5181 291° West 446 513 36,000 360 Climbing Cleveland Center
07:24AM 41.8100 -76.6686 291° West 436 502 36,000  Level Cleveland Center
07:25AM 41.8525 -76.8167 291° West 431 496 36,000  Level Cleveland Center
07:26AM 41.8928 -76.9678 290° West 431 496 36,000  Level Cleveland Center
07:27AM 41.9350 -77.1217 290° West 436 502 36,000  Level Cleveland Center
07:28AM 41.9750 -77.2761 289° West 436 502 36,000  Level Cleveland Center
07:29AM 42.0167 -77.4275 290° West 436 502 36,000 180 Level Cleveland Center
07:30AM 42.0564 -77.5822 289° West 436 502 36,400 480 Climbing Cleveland Center
07:31AM 42.0978 -77.7400 290° West 436 502 37,000 660 Climbing Cleveland Center
07:32AM 42.1414 -77.8975 291° West 441 507 37,800 480 Climbing Cleveland Center
07:33AM 42.1822 -78.0528 290° West 441 507 38,000 60 Climbing Cleveland Center
07:34AM 42.2233 -78.2111 289° West 441 507 38,000  Level Cleveland Center
07:35AM 42.2617 -78.3667 288° West 441 507 38,000  Level Cleveland Center
07:36AM 42.3022 -78.5225 289° West 441 507 38,000  Level Cleveland Center
07:37AM 42.3425 -78.6786 289° West 441 507 38,000  Level Cleveland Center
07:38AM 42.3825 -78.8375 289° West 441 507 38,000  Level Cleveland Center
07:39AM 42.4267 -79.0081 289° West 441 507 38,000  Level Cleveland Center
07:40AM 42.4617 -79.1506 288° West 441 507 38,000  Level Cleveland Center
07:41AM 42.4928 -79.3161 284° West 441 507 38,100  Climbing Cleveland Center
07:42AM 42.5031 -79.4847 275° West 447 514 38,100  Level Cleveland Center
07:43AM 42.4814 -79.6486 260° West 456 525 38,100  Level Cleveland Center
07:44AM 42.5161 -79.8422 284° West 441 507 38,100 -60 Level Cleveland Center
07:45AM 42.5233 -80.0028 274° West 441 507 38,000 -60 Descending Cleveland Center
07:46AM 42.5325 -80.1689 274° West 435 501 38,000  Level Cleveland Center
07:47AM 42.5392 -80.3408 273° West 446 513 38,100  Climbing Cleveland Center
07:48AM 42.5478 -80.5042 274° West 445 512 38,000 -60 Descending Cleveland Center
07:49AM 42.5519 -80.6733 272° West 445 512 38,000  Level Cleveland Center
07:50AM 42.5578 -80.8369 273° West 438 504 38,000  Level Cleveland Center
07:51AM 42.5636 -81.0033 273° West 446 513 38,000  Level Cleveland Center
07:52AM 42.5692 -81.1500 273° West 440 506 38,000  Level Cleveland Center
07:53AM 42.5744 -81.3161 273° West 448 516 38,000  Level Cleveland Center
07:54AM 42.5881 -81.4800 276° West 443 510 38,000  Level Cleveland Center
07:55AM 42.6158 -81.6469 283° West 438 504 38,000  Level Cleveland Center
07:56AM 42.6494 -81.8253 284° West 447 514 38,000  Level Cleveland Center
07:57AM 42.6767 -81.9894 283° West 452 520 38,000  Level Cleveland Center
07:58AM 42.7058 -82.1569 283° West 452 520 38,000  Level Cleveland Center
07:59AM 42.7347 -82.3189 284° West 452 520 38,000  Level Cleveland Center
08:00AM 42.7614 -82.4864 282° West 452 520 38,000  Level Cleveland Center
08:01AM 42.7894 -82.6569 283° West 452 520 38,000  Level Cleveland Center
08:02AM 42.8178 -82.8250 283° West 452 520 38,000  Level Cleveland Center
08:03AM 42.8456 -82.9903 283° West 452 520 38,000  Level Cleveland Center
08:04AM 42.8733 -83.1614 283° West 452 520 38,000  Level Cleveland Center
08:05AM 42.9006 -83.3297 283° West 452 520 38,000  Level Cleveland Center
08:06AM 42.9278 -83.4953 283° West 452 520 38,000  Level Cleveland Center
08:07AM 42.9544 -83.6697 282° West 452 520 38,000  Level Cleveland Center
08:08AM 42.9958 -83.8306 289° West 457 526 38,100  Climbing Cleveland Center
08:09AM 43.0561 -83.9872 298° West 457 526 38,000 -60 Descending Cleveland Center
08:10AM 43.1161 -84.1414 298° West 457 526 38,000  Level Cleveland Center
08:12AM 43.2233 -84.4208 298° West 462 532 38,000  Level Chicago Center
08:13AM 43.2761 -84.6175 290° West 461 531 38,000  Level Chicago Center
08:14AM 43.3147 -84.7844 288° West 462 532 38,000  Level Chicago Center
08:15AM 43.3528 -84.9503 288° West 458 527 38,000  Level Chicago Center
08:16AM 43.3906 -85.1175 287° West 460 529 38,000  Level Chicago Center
08:17AM 43.4283 -85.2831 287° West 458 527 38,000  Level Chicago Center
08:17AM 43.4269 -85.2833 188° South 458 527 38,000  Level Minneapolis Center
08:18AM 43.4797 -85.5167 287° West 460 529 38,000  Level Minneapolis Center
08:19AM 43.5164 -85.6831 287° West 459 528 38,000  Level Minneapolis Center
08:20AM 43.5528 -85.8503 287° West 460 529 38,000  Level Minneapolis Center
08:21AM 43.5900 -86.0178 287° West 460 529 38,000  Level Minneapolis Center
08:22AM 43.6264 -86.1872 287° West 463 533 38,000  Level Minneapolis Center
08:23AM 43.6636 -86.3544 287° West 461 531 38,000  Level Minneapolis Center
08:24AM 43.6994 -86.5225 286° West 461 531 38,000  Level Minneapolis Center
08:25AM 43.7356 -86.6925 286° West 462 532 38,000  Level Minneapolis Center
08:26AM 43.7664 -86.8433 286° West 463 533 38,000  Level Minneapolis Center
08:27AM 43.7983 -86.9983 286° West 463 533 38,000  Level Minneapolis Center
08:28AM 43.8414 -87.2036 286° West 465 535 38,000  Level Minneapolis Center
08:29AM 43.8764 -87.3794 285° West 462 532 38,000  Level Minneapolis Center
08:30AM 43.9117 -87.5503 286° West 465 535 38,000  Level Minneapolis Center
08:31AM 43.9450 -87.7214 285° West 463 533 38,000  Level Minneapolis Center
08:32AM 43.9789 -87.8925 285° West 463 533 38,000  Level Minneapolis Center
08:33AM 44.0125 -88.0639 285° West 463 533 38,000  Level Minneapolis Center
08:34AM 44.0425 -88.2367 284° West 465 535 38,000  Level Minneapolis Center
08:35AM 44.0722 -88.4086 284° West 463 533 38,000  Level Minneapolis Center
08:36AM 44.1019 -88.5817 284° West 463 533 38,000  Level Minneapolis Center
08:37AM 44.1306 -88.7522 283° West 457 526 38,000  Level Minneapolis Center
08:38AM 44.1597 -88.9253 283° West 460 529 38,000  Level Minneapolis Center
08:39AM 44.1939 -89.1272 283° West 461 531 38,000  Level Minneapolis Center
08:40AM 44.2214 -89.3011 283° West 459 528 38,000  Level Minneapolis Center
08:41AM 44.2506 -89.4744 283° West 461 531 38,000  Level Minneapolis Center
08:42AM 44.2775 -89.6475 282° West 459 528 38,000  Level Minneapolis Center
08:43AM 44.3067 -89.8214 283° West 459 528 38,000  Level Minneapolis Center
08:44AM 44.3333 -89.9958 282° West 460 529 38,000  Level Minneapolis Center
08:45AM 44.3611 -90.1714 283° West 461 531 38,000  Level Minneapolis Center
08:47AM 44.3883 -90.3458 282° West 461 531 38,000  Level Minneapolis Center
08:48AM 44.4247 -90.5164 287° West 459 528 38,100  Climbing Minneapolis Center
08:49AM 44.4667 -90.6864 289° West 462 532 38,000 -60 Descending Minneapolis Center
08:50AM 44.5003 -90.8286 288° West 462 532 38,000  Level Minneapolis Center
08:51AM 44.5497 -91.0350 289° West 456 525 38,000  Level Minneapolis Center
08:52AM 44.5889 -91.2014 288° West 453 521 38,000  Level Minneapolis Center
08:53AM 44.6289 -91.3689 289° West 454 522 38,000  Level Minneapolis Center
08:54AM 44.6672 -91.5367 288° West 453 521 38,000  Level Minneapolis Center
08:55AM 44.7058 -91.7014 288° West 450 518 38,000  Level Minneapolis Center
08:56AM 44.7453 -91.8667 289° West 449 517 38,000  Level Minneapolis Center
08:57AM 44.7825 -92.0314 288° West 446 513 38,000  Level Minneapolis Center
08:58AM 44.8261 -92.2289 287° West 443 510 38,000  Level Minneapolis Center
08:59AM 44.8628 -92.3928 288° West 443 510 38,000  Level Minneapolis Center
09:00AM 44.8997 -92.5572 288° West 443 510 38,000  Level Minneapolis Center
09:01AM 44.9356 -92.7228 287° West 444 511 38,000  Level Minneapolis Center
09:02AM 44.9719 -92.8875 287° West 444 511 38,000  Level Minneapolis Center
09:03AM 45.0078 -93.0522 287° West 445 512 38,000  Level Minneapolis Center
09:04AM 45.0433 -93.2181 287° West 448 516 38,100  Climbing Minneapolis Center
09:05AM 45.0717 -93.3500 287° West 447 514 38,100 -60 Level Minneapolis Center
09:06AM 45.1136 -93.5469 287° West 441 507 38,000 -60 Descending Minneapolis Center
09:07AM 45.1550 -93.7425 287° West 438 504 38,000  Level Minneapolis Center
09:08AM 45.1889 -93.9069 286° West 438 504 38,000  Level Minneapolis Center
09:09AM 45.2222 -94.0731 286° West 439 505 38,100  Climbing Minneapolis Center
09:10AM 45.2572 -94.2378 287° West 440 506 38,100 -60 Level Minneapolis Center
09:11AM 45.2894 -94.4000 286° West 434 499 38,000 -60 Descending Minneapolis Center
09:12AM 45.3225 -94.5622 286° West 431 496 38,000  Level Minneapolis Center
09:13AM 45.3589 -94.7469 286° West 429 494 38,000  Level Minneapolis Center
09:14AM 45.3975 -94.9394 286° West 425 489 38,000  Level Minneapolis Center
09:15AM 45.4297 -95.1025 286° West 428 493 38,100  Climbing Minneapolis Center
09:16AM 45.4603 -95.2656 285° West 428 493 38,000 -60 Descending Minneapolis Center
09:17AM 45.4914 -95.4292 285° West 431 496 38,000  Level Minneapolis Center
09:18AM 45.5239 -95.5925 286° West 431 496 38,100  Climbing Minneapolis Center
09:19AM 45.5539 -95.7556 285° West 429 494 38,000 -60 Descending Minneapolis Center
09:20AM 45.5794 -95.8875 286° West 432 497 38,000  Level Minneapolis Center
09:21AM 45.6167 -96.0856 285° West 432 497 38,000  Level Minneapolis Center
09:22AM 45.6475 -96.2531 285° West 438 504 38,000  Level Minneapolis Center
09:23AM 45.6778 -96.4217 284° West 441 507 38,000  Level Minneapolis Center
09:24AM 45.7092 -96.5919 285° West 444 511 38,000  Level Minneapolis Center
09:25AM 45.7467 -96.7972 285° West 446 513 38,100  Climbing Minneapolis Center
09:26AM 45.7775 -96.9717 284° West 452 520 38,100  Level Minneapolis Center
09:27AM 45.8133 -97.1803 284° West 454 522 38,100 -60 Level Minneapolis Center
09:29AM 45.8439 -97.3528 284° West 450 518 38,000 -60 Descending Minneapolis Center
09:30AM 45.8722 -97.5125 284° West 447 514 38,000  Level Minneapolis Center
09:31AM 45.9017 -97.6850 284° West 446 513 38,000  Level Minneapolis Center
09:32AM 45.9308 -97.8583 284° West 446 513 38,000  Level Minneapolis Center
09:33AM 45.9597 -98.0303 284° West 444 511 38,000  Level Minneapolis Center
09:34AM 45.9911 -98.2203 283° West 443 510 38,000  Level Minneapolis Center
09:35AM 46.0192 -98.3947 283° West 447 514 38,000  Level Minneapolis Center
09:36AM 46.0469 -98.5650 283° West 442 509 38,000  Level Minneapolis Center
09:37AM 46.0742 -98.7367 283° West 442 509 38,100  Climbing Minneapolis Center
09:38AM 46.1036 -98.9256 283° West 440 506 38,000 -60 Descending Minneapolis Center
09:39AM 46.1308 -99.0964 283° West 439 505 38,000  Level Minneapolis Center
09:40AM 46.1597 -99.2817 283° West 438 504 38,000  Level Minneapolis Center
09:41AM 46.1856 -99.4517 282° West 437 503 38,000  Level Minneapolis Center
09:42AM 46.2114 -99.6214 282° West 435 501 38,000  Level Minneapolis Center
09:43AM 46.2367 -99.7914 282° West 436 502 38,000  Level Minneapolis Center
09:44AM 46.2625 -99.9644 282° West 440 506 38,100  Climbing Minneapolis Center
09:45AM 46.2878 -100.1392 282° West 445 512 38,000 -60 Descending Minneapolis Center
09:46AM 46.3125 -100.3111 282° West 440 506 38,000  Level Minneapolis Center
09:47AM 46.3378 -100.4836 282° West 441 507 38,000  Level Minneapolis Center
09:48AM 46.3619 -100.6583 281° West 442 509 38,000  Level Minneapolis Center
09:49AM 46.3864 -100.8325 282° West 443 510 38,000  Level Minneapolis Center
09:50AM 46.4161 -101.0408 282° West 443 510 38,000  Level Minneapolis Center
09:51AM 46.4397 -101.2164 281° West 444 511 38,000  Level Minneapolis Center
09:52AM 46.4622 -101.3953 280° West 449 517 38,000  Level Minneapolis Center
09:53AM 46.4864 -101.5703 281° West 446 513 38,000  Level Minneapolis Center
09:54AM 46.5111 -101.7531 281° West 444 511 38,000  Level Minneapolis Center
09:55AM 46.5353 -101.9258 282° West 440 506 38,000  Level Minneapolis Center
09:56AM 46.5589 -102.1017 281° West 442 509 38,000  Level Minneapolis Center
09:57AM 46.5811 -102.2764 281° West 442 509 38,000  Level Minneapolis Center
09:58AM 46.6022 -102.4558 280° West 445 512 38,000  Level Minneapolis Center
09:59AM 46.6244 -102.6322 280° West 446 513 38,000  Level Minneapolis Center
10:00AM 46.6472 -102.8081 281° West 444 511 38,000  Level Minneapolis Center
10:01AM 46.6614 -102.9508 278° West 444 511 38,000  Level Salt Lake Center
10:02AM 46.6819 -103.1292 280° West 445 512 38,000  Level Salt Lake Center
10:03AM 46.7033 -103.3064 280° West 445 512 38,000  Level Salt Lake Center
10:04AM 46.7236 -103.4836 280° West 444 511 38,000  Level Salt Lake Center
10:05AM 46.7431 -103.6639 279° West 446 513 38,000  Level Salt Lake Center
10:06AM 46.7639 -103.8422 280° West 447 514 38,000  Level Salt Lake Center
10:07AM 46.7836 -104.0217 279° West 447 514 38,000  Level Salt Lake Center
10:08AM 46.8025 -104.1958 279° West 441 507 38,000  Level Salt Lake Center
10:09AM 46.8211 -104.3725 279° West 440 506 38,000  Level Salt Lake Center
10:10AM 46.8389 -104.5494 278° West 440 506 38,000  Level Salt Lake Center
10:11AM 46.8583 -104.7283 279° West 443 510 38,000  Level Salt Lake Center
10:12AM 46.8764 -104.9069 278° West 444 511 38,000  Level Salt Lake Center
10:13AM 46.8939 -105.0831 278° West 441 507 38,000  Level Salt Lake Center
10:14AM 46.9158 -105.2981 279° West 443 510 38,000  Level Salt Lake Center
10:15AM 46.9350 -105.4781 279° West 447 514 38,000  Level Salt Lake Center
10:16AM 46.9514 -105.6572 278° West 446 513 38,000  Level Salt Lake Center
10:17AM 46.9681 -105.8372 278° West 447 514 38,000  Level Salt Lake Center
10:18AM 46.9853 -106.0175 278° West 448 516 38,000  Level Salt Lake Center
10:19AM 47.0028 -106.2022 278° West 454 522 38,000  Level Salt Lake Center
10:20AM 47.0200 -106.3839 278° West 455 524 38,100  Climbing Salt Lake Center
10:21AM 47.0369 -106.5883 277° West 453 521 38,000 -60 Descending Salt Lake Center
10:22AM 47.0525 -106.7667 277° West 458 527 38,000  Level Salt Lake Center
10:23AM 47.0672 -106.9433 277° West 457 526 38,000  Level Salt Lake Center
10:24AM 47.0842 -107.1494 277° West 458 527 38,000  Level Salt Lake Center
10:25AM 47.0986 -107.3283 277° West 460 529 38,000  Level Salt Lake Center
10:26AM 47.1147 -107.5392 276° West 464 534 38,000  Level Salt Lake Center
10:27AM 47.1294 -107.7197 277° West 465 535 38,000  Level Salt Lake Center
10:28AM 47.1436 -107.8997 277° West 465 535 38,000  Level Salt Lake Center
10:29AM 47.1583 -108.1117 276° West 467 537 38,000  Level Salt Lake Center
10:30AM 47.1717 -108.2936 276° West 468 539 38,000  Level Salt Lake Center
10:31AM 47.1858 -108.5033 276° West 464 534 38,000  Level Salt Lake Center
10:32AM 47.1978 -108.6867 276° West 469 540 38,000  Level Salt Lake Center
10:33AM 47.2103 -108.8681 276° West 467 537 38,000  Level Salt Lake Center
10:34AM 47.2239 -109.0850 275° West 472 543 38,000  Level Salt Lake Center
10:35AM 47.2358 -109.2778 275° West 474 545 38,000  Level Salt Lake Center
10:36AM 47.2489 -109.4697 276° West 474 545 38,000  Level Salt Lake Center
10:37AM 47.2600 -109.6681 275° West 475 547 38,000  Level Salt Lake Center
10:38AM 47.2706 -109.8567 275° West 476 548 38,000  Level Salt Lake Center
10:40AM 47.2819 -110.0500 275° West 476 548 38,000  Level Salt Lake Center
10:41AM 47.2925 -110.2450 275° West 478 550 38,000  Level Salt Lake Center
10:42AM 47.3031 -110.4381 275° West 475 547 38,000  Level Salt Lake Center
10:43AM 47.3128 -110.6344 274° West 480 552 38,000  Level Salt Lake Center
10:44AM 47.3225 -110.8303 274° West 479 551 38,000  Level Salt Lake Center
10:45AM 47.3339 -111.0667 274° West 479 551 38,000  Level Salt Lake Center
10:46AM 47.3428 -111.2658 274° West 482 555 38,000  Level Salt Lake Center
10:47AM 47.3514 -111.4661 274° West 483 556 38,000  Level Salt Lake Center
10:48AM 47.3606 -111.6658 274° West 485 558 38,000 -60 Level Salt Lake Center
10:49AM 47.3678 -111.8650 273° West 485 558 37,900 -60 Descending Salt Lake Center
10:50AM 47.3756 -112.0633 273° West 485 558 37,900  Level Salt Lake Center
10:51AM 47.3831 -112.2642 273° West 488 562 38,000  Climbing Salt Lake Center
10:52AM 47.3894 -112.4672 273° West 493 567 38,000  Level Salt Lake Center
10:53AM 47.3969 -112.6706 273° West 496 571 38,000  Level Salt Lake Center
10:54AM 47.4036 -112.8789 273° West 497 572 38,100  Climbing Salt Lake Center
10:55AM 47.4094 -113.0772 273° West 499 574 38,000 -60 Descending Salt Lake Center
10:56AM 47.4178 -113.3192 273° West 492 566 38,000  Level Salt Lake Center
10:57AM 47.4222 -113.5208 272° West 492 566 38,000  Level Salt Lake Center
10:58AM 47.4272 -113.7222 272° West 490 564 38,000  Level Salt Lake Center
10:59AM 47.4317 -113.9267 272° West 495 570 38,000  Level Salt Lake Center
11:00AM 47.4361 -114.1297 272° West 493 567 38,000  Level Salt Lake Center
11:01AM 47.4403 -114.3322 272° West 492 566 38,000  Level Salt Lake Center
11:02AM 47.4436 -114.5367 271° West 494 568 38,000  Level Salt Lake Center
11:03AM 47.4469 -114.7408 271° West 496 571 38,000  Level Salt Lake Center
11:03AM 47.4472 -114.8225 270° West 494 568 38,000  Level Seattle Center
11:04AM 47.4508 -115.0258 272° West 496 571 38,000  Level Seattle Center
11:05AM 47.4533 -115.2281 271° West 493 567 38,000  Level Seattle Center
11:06AM 47.4556 -115.4297 271° West 490 564 38,000  Level Seattle Center
11:07AM 47.4564 -115.6306 270° West 492 566 38,000  Level Seattle Center
11:08AM 47.4700 -115.8564 275° West 499 574 38,000 -120 Level Seattle Center
11:09AM 47.4819 -116.0636 275° West 505 581 37,800 -600 Descending Seattle Center
11:10AM 47.4947 -116.2700 275° West 506 582 36,900 -900 Descending Seattle Center
11:11AM 47.5064 -116.4842 275° West 520 598 36,000 -480 Descending Seattle Center
11:13AM 47.5178 -116.7008 275° West 528 608 36,000  Level Seattle Center
11:14AM 47.5300 -116.9153 275° West 524 603 36,000  Level Seattle Center
11:15AM 47.5414 -117.1086 275° West 525 604 36,000  Level Seattle Center
11:16AM 47.5522 -117.3606 274° West 520 598 36,000  Level Seattle Center
11:17AM 47.5625 -117.5736 274° West 520 598 36,000  Level Seattle Center
11:18AM 47.5806 -117.7839 277° West 516 594 36,000  Level Seattle Center
11:19AM 47.5992 -117.9892 278° West 510 587 36,000  Level Seattle Center
11:20AM 47.6181 -118.1958 278° West 508 585 36,000  Level Seattle Center
11:21AM 47.6375 -118.4008 278° West 505 581 36,000  Level Seattle Center
11:22AM 47.6553 -118.6072 277° West 507 583 36,000  Level Seattle Center
11:23AM 47.6731 -118.8131 277° West 505 581 36,000  Level Seattle Center
11:24AM 47.6908 -119.0183 277° West 503 579 36,000  Level Seattle Center
11:25AM 47.7067 -119.2228 277° West 501 577 36,000  Level Seattle Center
11:26AM 47.7239 -119.4294 277° West 504 580 36,000  Level Seattle Center
11:27AM 47.7403 -119.6336 277° West 502 578 36,000 -1,140 Level Seattle Center
11:28AM 47.7558 -119.8358 277° West 494 568 33,800 -3,000 Descending Seattle Center
11:29AM 47.7717 -120.0408 277° West 501 577 30,000 -2,880 Descending Seattle Center
11:30AM 47.7872 -120.2464 277° West 501 577 28,000 -1,740 Descending Seattle Center
11:31AM 47.8017 -120.4458 276° West 488 562 26,500 -1,320 Descending Seattle Center
11:32AM 47.8150 -120.6372 276° West 469 540 25,400 -1,080 Descending Seattle Center
11:33AM 47.8297 -120.8514 276° West 460 529 24,400 -960 Descending Seattle Center
11:34AM 47.8439 -121.0339 277° West 451 519 23,500 -960 Descending Seattle Center
11:35AM 47.8569 -121.2125 276° West 440 506 22,500 -1,080 Descending Seattle Center
11:36AM 47.8678 -121.3869 275° West 431 496 21,400 -1,860 Descending Seattle Center
11:37AM 47.8775 -121.5775 274° West 425 489 18,800 -2,100 Descending Seattle Center
11:38AM 47.8594 -121.7403 261° West 407 468 17,200 -1,800 Descending Seattle Center
11:39AM 47.7803 -121.8469 222° Southwest 382 440 15,200 -1,620 Descending Seattle Center
11:40AM 47.7122 -121.9392 222° Southwest 359 413 14,100 -1,140 Descending Seattle Center
11:41AM 47.6358 -122.0414 222° Southwest 368 423 13,100 -1,200 Descending Seattle Center
11:42AM 47.5519 -122.1544 222° Southwest 354 407 11,600 -1,380 Descending Seattle Center
11:43AM 47.4683 -122.1800 192° South 305 351 10,200 -1,980 Descending Seattle Center
11:44AM 47.3992 -122.1861 183° South 285 328 7,900 12,780 Descending Seattle Center
11:45AM 47.3117 -122.1886 181° South 275 316 36,000 13,020 Climbing Seattle Center
11:46AM 47.2447 -122.1908 181° South 247 284 36,000 -17,220 Level Seattle Center
11:47AM 47.1958 -122.2264 206° Southwest 227 261 3,000 -17,460 Descending Seattle Center
11:48AM 47.2231 -122.3061 297° West 220 253 2,900  Descending Seattle Center
11:49AM 47.2806 -122.3139 355° North 200 230 3,000 -240 Climbing Seattle Center
11:50AM 47.3339 -122.3139 360° North 185 213 2,400 -600 Descending Seattle Center